Time;durP1;ratioP1;P1;durP2;ratioP2;P2;SDS_P1;SDS_P2;PMS_P1;PMS_P2;Temp;Humidity;BMP_temperature;BMP_pressure;BME280_temperature;BME280_humidity;BME280_pressure;Samples;Min_cycle;Max_cycle;Signal;HPM_P1;HPM_P2
2022/07/05 00:00:45;;;;;;;3.42;2.60;;;19.50;86.00;;;18.62;100.00;96271.31;4967124;28;20482;-68
2022/07/05 00:03:11;;;;;;;4.93;2.90;;;19.50;86.00;;;18.62;100.00;96265.97;4949556;28;20043;-69
2022/07/05 00:05:37;;;;;;;3.00;2.60;;;19.60;85.90;;;18.59;100.00;96261.94;4945876;28;20047;-68
2022/07/05 00:08:03;;;;;;;5.13;3.22;;;19.50;85.80;;;18.60;100.00;96266.22;4948482;28;20093;-68
2022/07/05 00:10:30;;;;;;;7.20;2.78;;;19.50;85.80;;;18.63;100.00;96264.97;4952005;28;20050;-69
2022/07/05 00:12:56;;;;;;;9.00;3.10;;;19.60;85.60;;;18.64;100.00;96263.91;4949914;28;20066;-68
2022/07/05 00:15:22;;;;;;;5.47;3.35;;;19.60;85.50;;;18.66;100.00;96264.50;4950346;28;20550;-68
2022/07/05 00:17:48;;;;;;;4.80;3.05;;;19.60;85.40;;;18.66;100.00;96254.63;4971867;28;20034;-68
2022/07/05 00:20:13;;;;;;;6.60;3.10;;;19.60;85.30;;;18.63;100.00;96257.78;4959055;28;20614;-68
2022/07/05 00:22:39;;;;;;;5.22;2.58;;;19.50;85.60;;;18.59;100.00;96255.78;4961076;28;20030;-68
2022/07/05 00:25:05;;;;;;;3.92;2.92;;;19.40;85.60;;;18.55;100.00;96255.44;4965186;28;20135;-69
2022/07/05 00:27:31;;;;;;;3.10;2.60;;;19.30;85.80;;;18.50;100.00;96259.84;4950804;28;20137;-68
2022/07/05 00:29:57;;;;;;;6.65;2.63;;;19.30;86.00;;;18.46;100.00;96256.03;4963962;28;20085;-68
2022/07/05 00:32:22;;;;;;;3.50;2.63;;;19.20;86.20;;;18.43;100.00;96251.19;4947720;28;20062;-68
2022/07/05 00:34:48;;;;;;;3.13;2.00;;;19.30;86.10;;;18.42;100.00;96246.91;4968066;28;20114;-68
2022/07/05 00:37:14;;;;;;;4.30;2.15;;;19.20;85.90;;;18.42;100.00;96238.91;4950471;28;20045;-68
2022/07/05 00:39:39;;;;;;;4.05;2.15;;;19.30;85.80;;;18.40;100.00;96243.66;4934363;28;20059;-68
2022/07/05 00:42:05;;;;;;;6.18;2.50;;;19.30;86.00;;;18.39;100.00;96234.06;4982572;28;20046;-68
2022/07/05 00:44:34;;;;;;;4.75;2.35;;;19.20;85.90;;;18.34;100.00;96232.91;4953356;28;20037;-68
2022/07/05 00:47:02;;;;;;;5.13;2.22;;;19.10;86.60;;;18.34;100.00;96238.25;4950962;28;20046;-67
2022/07/05 00:49:28;;;;;;;3.95;2.00;;;19.20;86.40;;;18.34;100.00;96243.56;4951453;28;20066;-68
2022/07/05 00:51:54;;;;;;;3.20;2.20;;;19.20;86.60;;;18.33;100.00;96236.63;4960851;28;20047;-70
2022/07/05 00:54:20;;;;;;;4.68;2.80;;;19.20;86.50;;;18.31;100.00;96237.88;4934904;28;20071;-68
2022/07/05 00:56:45;;;;;;;3.25;2.30;;;19.10;86.50;;;18.29;100.00;96246.09;4948019;28;20117;-68
2022/07/05 00:59:11;;;;;;;4.38;2.17;;;19.10;86.50;;;18.30;100.00;96246.91;4946066;28;20451;-68
2022/07/05 01:01:37;;;;;;;5.35;2.22;;;19.10;86.30;;;18.27;100.00;96234.88;4944308;28;20129;-68
2022/07/05 01:04:03;;;;;;;4.13;2.33;;;19.20;86.20;;;18.30;100.00;96236.25;4948732;28;20078;-68
2022/07/05 01:06:29;;;;;;;3.33;2.00;;;19.20;86.00;;;18.30;100.00;96231.75;4947951;28;20064;-67
2022/07/05 01:08:54;;;;;;;4.68;2.40;;;19.30;86.10;;;18.30;100.00;96230.94;4964487;28;20133;-68
2022/07/05 01:11:20;;;;;;;4.25;2.33;;;19.10;85.80;;;18.28;100.00;96239.16;4942999;28;20416;-68
2022/07/05 01:13:46;;;;;;;2.97;2.05;;;19.20;86.10;;;18.27;100.00;96232.22;4949887;28;20035;-68
2022/07/05 01:16:12;;;;;;;4.13;2.20;;;19.10;85.80;;;18.20;100.00;96239.53;4963394;28;20085;-68
2022/07/05 01:18:38;;;;;;;5.05;2.25;;;19.00;85.90;;;18.13;100.00;96232.72;4934437;28;20049;-68
2022/07/05 01:21:04;;;;;;;5.40;1.90;;;18.90;86.30;;;18.09;100.00;96229.69;4963456;28;20471;-68
2022/07/05 01:23:30;;;;;;;3.75;2.40;;;18.90;86.30;;;18.03;100.00;96226.09;4960628;28;20554;-68
2022/07/05 01:25:57;;;;;;;3.72;2.40;;;18.80;86.40;;;17.99;100.00;96224.16;4946469;28;20101;-68
2022/07/05 01:28:22;;;;;;;2.97;1.90;;;18.80;86.70;;;17.94;100.00;96224.03;4932076;28;20038;-68
2022/07/05 01:30:48;;;;;;;4.78;2.35;;;18.70;86.60;;;17.90;100.00;96230.88;4966446;28;20050;-68
2022/07/05 01:33:14;;;;;;;3.55;2.30;;;18.70;86.50;;;17.86;100.00;96227.84;4945788;28;20074;-68
2022/07/05 01:35:40;;;;;;;6.75;2.20;;;18.70;86.70;;;17.84;100.00;96224.59;4944344;28;20387;-68
2022/07/05 01:38:05;;;;;;;6.03;2.10;;;18.70;86.50;;;17.82;100.00;96218.69;4963465;28;20054;-68
2022/07/05 01:40:31;;;;;;;4.07;2.53;;;18.60;86.70;;;17.78;100.00;96222.06;4948264;28;20452;-69
2022/07/05 01:42:57;;;;;;;3.63;2.33;;;18.60;86.70;;;17.72;100.00;96221.94;4965682;28;20539;-67
2022/07/05 01:45:44;;;;;;;4.22;2.13;;;18.60;86.80;;;17.71;100.00;96217.66;4915199;28;20109;-68
2022/07/05 01:48:12;;;;;;;4.03;2.47;;;18.60;86.90;;;17.70;100.00;96210.72;4948186;28;20054;-68
2022/07/05 01:50:57;;;;;;;2.50;1.90;;;18.60;86.70;;;17.69;100.00;96214.44;4948903;28;20449;-68
2022/07/05 01:53:30;;;;;;;2.95;2.10;;;18.60;86.60;;;17.65;100.00;96213.25;4931101;28;20053;-68
2022/07/05 01:55:57;;;;;;;4.68;2.10;;;18.50;86.80;;;17.61;100.00;96217.38;4936097;28;20046;-67
2022/07/05 01:58:24;;;;;;;3.30;1.90;;;18.50;86.90;;;17.62;100.00;96215.53;4943991;28;20031;-68
2022/07/05 02:00:52;;;;;;;4.10;2.30;;;18.60;86.70;;;17.62;100.00;96223.50;4945297;28;20051;-68
2022/07/05 02:03:18;;;;;;;4.68;2.10;;;18.60;86.50;;;17.62;100.00;96218.19;4930523;28;20035;-68
2022/07/05 02:05:44;;;;;;;3.15;1.90;;;18.60;86.50;;;17.62;100.00;96221.66;4944964;28;20050;-69
2022/07/05 02:08:10;;;;;;;4.53;2.30;;;18.60;86.30;;;17.64;100.00;96222.25;4942147;28;20038;-68
2022/07/05 02:10:37;;;;;;;2.78;2.08;;;18.60;86.20;;;17.61;100.00;96222.69;4932218;28;20039;-68
2022/07/05 02:13:03;;;;;;;4.35;2.10;;;18.60;86.20;;;17.59;100.00;96234.63;4945703;28;20955;-69
2022/07/05 02:15:37;;;;;;;4.47;2.10;;;18.50;86.40;;;17.52;100.00;96233.91;4938421;28;20031;-69
2022/07/05 02:18:03;;;;;;;4.95;2.28;;;18.40;86.80;;;17.49;100.00;96237.03;4947704;28;20538;-69
2022/07/05 02:20:31;;;;;;;4.53;2.13;;;18.40;87.00;;;17.45;100.00;96228.72;4948615;28;20045;-69
2022/07/05 02:22:57;;;;;;;8.52;2.08;;;18.40;86.90;;;17.44;100.00;96243.06;4949852;28;20061;-68
2022/07/05 02:25:22;;;;;;;3.20;2.00;;;18.40;86.70;;;17.40;100.00;96239.19;4944747;28;20051;-68
2022/07/05 02:27:48;;;;;;;3.92;2.42;;;18.30;87.20;;;17.35;100.00;96234.56;4961234;28;20069;-68
2022/07/05 02:30:14;;;;;;;5.38;2.20;;;18.20;87.30;;;17.30;100.00;96242.44;4960316;28;20130;-69
2022/07/05 02:32:40;;;;;;;3.80;2.40;;;18.20;87.50;;;17.27;100.00;96250.06;4930030;28;20049;-68
2022/07/05 02:35:07;;;;;;;6.05;2.15;;;18.10;87.70;;;17.25;100.00;96244.16;4929921;28;20035;-68
2022/07/05 02:37:33;;;;;;;3.25;2.22;;;18.10;87.50;;;17.23;100.00;96251.56;4948862;28;20035;-68
2022/07/05 02:39:59;;;;;;;6.13;2.40;;;18.10;87.70;;;17.17;100.00;96252.44;4946794;28;20094;-68
2022/07/05 02:42:24;;;;;;;7.75;2.88;;;18.00;88.00;;;17.15;100.00;96250.81;4946946;28;20042;-68
2022/07/05 02:44:50;;;;;;;7.03;5.43;;;18.10;87.80;;;17.15;100.00;96256.13;4926090;28;20039;-68
2022/07/05 02:47:16;;;;;;;4.35;3.45;;;18.10;87.80;;;17.17;100.00;96253.25;4958915;28;20109;-68
2022/07/05 02:49:42;;;;;;;4.70;2.35;;;18.10;87.80;;;17.17;100.00;96252.44;4960888;28;20042;-68
2022/07/05 02:52:07;;;;;;;7.93;6.10;;;18.10;87.70;;;17.14;100.00;96249.19;4937975;28;20043;-67
2022/07/05 02:54:33;;;;;;;7.43;5.15;;;18.10;87.70;;;17.14;100.00;96248.38;4949784;28;20038;-68
2022/07/05 02:56:59;;;;;;;6.80;3.83;;;18.10;87.60;;;17.15;100.00;96261.44;4949459;28;20043;-68
2022/07/05 02:59:25;;;;;;;10.43;6.78;;;18.10;87.40;;;17.17;100.00;96257.75;4945055;28;20050;-68
2022/07/05 03:01:52;;;;;;;13.88;10.45;;;18.20;87.40;;;17.20;100.00;96262.63;4951336;28;20034;-69
2022/07/05 03:04:18;;;;;;;6.20;3.92;;;18.20;87.40;;;17.20;100.00;96257.28;4935075;28;20054;-69
2022/07/05 03:06:43;;;;;;;5.40;2.53;;;18.10;87.20;;;17.20;100.00;96262.63;4951787;28;20435;-68
2022/07/05 03:09:10;;;;;;;3.95;2.78;;;18.20;87.20;;;17.21;100.00;96264.25;4964439;28;20507;-68
2022/07/05 03:11:35;;;;;;;5.90;2.75;;;18.20;87.20;;;17.23;100.00;96262.19;4950892;28;20121;-68
2022/07/05 03:14:01;;;;;;;5.35;2.20;;;18.20;87.00;;;17.24;100.00;96263.81;4950705;28;20035;-69
2022/07/05 03:16:27;;;;;;;2.58;2.05;;;18.30;86.80;;;17.25;100.00;96255.59;4951056;28;20043;-68
2022/07/05 03:18:53;;;;;;;4.28;2.50;;;18.30;86.70;;;17.26;100.00;96259.06;4955088;28;20039;-68
2022/07/05 03:21:18;;;;;;;4.35;2.53;;;18.30;86.70;;;17.25;100.00;96255.59;4953548;28;20090;-68
2022/07/05 03:23:44;;;;;;;6.03;4.18;;;18.20;86.80;;;17.25;100.00;96257.44;4971471;28;20125;-68
2022/07/05 03:26:10;;;;;;;8.13;5.28;;;18.20;86.80;;;17.25;100.00;96265.44;4952821;28;20063;-68
2022/07/05 03:28:35;;;;;;;20.48;18.05;;;18.20;86.70;;;17.25;100.00;96260.09;4956665;28;20039;-68
2022/07/05 03:31:01;;;;;;;9.98;8.90;;;18.30;86.60;;;17.27;100.00;96260.69;4950646;28;20118;-68
2022/07/05 03:33:27;;;;;;;5.95;3.17;;;18.30;86.60;;;17.27;100.00;96268.66;4953638;28;20144;-68
2022/07/05 03:35:53;;;;;;;3.72;2.35;;;18.30;86.50;;;17.25;100.00;96265.44;4953811;28;20483;-68
2022/07/05 03:38:18;;;;;;;4.72;2.33;;;18.20;86.70;;;17.24;100.00;96269.13;4970442;28;20081;-68
2022/07/05 03:40:44;;;;;;;7.55;4.28;;;18.20;86.60;;;17.25;100.00;96276.06;4939423;28;20027;-68
2022/07/05 03:43:10;;;;;;;6.97;4.13;;;18.30;86.60;;;17.24;100.00;96271.78;4952759;28;20066;-68
2022/07/05 03:45:35;;;;;;;12.02;8.68;;;18.30;86.60;;;17.24;100.00;96272.59;4954924;28;20046;-68
2022/07/05 03:48:01;;;;;;;11.68;9.82;;;18.30;86.60;;;17.24;100.00;96269.13;4948922;28;20138;-68
2022/07/05 03:50:27;;;;;;;8.45;6.95;;;18.30;86.50;;;17.24;100.00;96274.44;4983020;28;20042;-66
2022/07/05 03:52:53;;;;;;;5.50;3.47;;;18.30;86.60;;;17.24;100.00;96269.13;4952455;28;20038;-63
2022/07/05 03:55:19;;;;;;;5.57;2.67;;;18.30;86.60;;;17.24;100.00;96269.13;4939418;28;20035;-65
2022/07/05 03:57:45;;;;;;;7.18;2.70;;;18.20;86.60;;;17.25;100.00;96265.44;4955907;28;20407;-63
2022/07/05 04:00:11;;;;;;;7.85;2.75;;;18.30;86.40;;;17.23;100.00;96263.00;4972428;28;20050;-63
2022/07/05 04:02:37;;;;;;;5.63;2.38;;;18.30;86.50;;;17.25;100.00;96265.44;4967925;28;20609;-63
2022/07/05 04:05:04;;;;;;;6.63;2.42;;;18.30;86.50;;;17.26;100.00;96267.84;4933251;29;20035;-63
2022/07/05 04:07:30;;;;;;;4.38;2.65;;;18.40;86.40;;;17.26;100.00;96262.53;4953411;28;20395;-63
2022/07/05 04:09:56;;;;;;;5.32;2.95;;;18.40;86.40;;;17.27;100.00;96271.31;4921094;28;20046;-63
2022/07/05 04:12:21;;;;;;;4.40;2.70;;;18.40;86.30;;;17.25;100.00;96271.56;4937578;28;20067;-63
2022/07/05 04:14:47;;;;;;;5.90;2.60;;;18.30;86.50;;;17.23;100.00;96278.13;4931310;29;20039;-63
2022/07/05 04:17:13;;;;;;;5.53;3.20;;;18.40;86.40;;;17.22;100.00;96287.16;4937192;28;20039;-63
2022/07/05 04:19:38;;;;;;;6.70;3.15;;;18.30;86.50;;;17.19;100.00;96282.25;4937132;28;20086;-63
2022/07/05 04:22:04;;;;;;;5.82;3.10;;;18.20;86.70;;;17.19;100.00;96274.28;4936839;28;20054;-63
2022/07/05 04:24:30;;;;;;;4.22;3.08;;;18.20;86.70;;;17.19;100.00;96282.25;4955500;28;20027;-63
2022/07/05 04:26:56;;;;;;;7.03;3.70;;;18.30;86.70;;;17.19;100.00;96283.06;4956423;28;20063;-62
2022/07/05 04:29:21;;;;;;;4.03;3.30;;;18.30;86.70;;;17.21;100.00;96283.69;4972251;28;20031;-63
2022/07/05 04:31:47;;;;;;;4.88;3.38;;;18.30;86.70;;;17.21;100.00;96286.34;4972031;28;20031;-63
2022/07/05 04:34:13;;;;;;;6.97;3.53;;;18.40;86.60;;;17.20;100.00;96274.09;4947904;28;20550;-63
2022/07/05 04:36:40;;;;;;;4.35;2.90;;;18.30;86.80;;;17.21;100.00;96280.22;4972151;28;20479;-62
2022/07/05 04:39:06;;;;;;;6.32;3.25;;;18.30;86.90;;;17.23;100.00;96280.78;4955928;28;20089;-63
2022/07/05 04:41:32;;;;;;;7.38;3.47;;;18.40;86.80;;;17.21;100.00;96286.34;4956297;28;20581;-63
2022/07/05 04:43:58;;;;;;;7.60;3.35;;;18.30;87.10;;;17.23;100.00;96276.28;4967201;28;20027;-63
2022/07/05 04:46:24;;;;;;;5.72;3.40;;;18.40;87.10;;;17.24;100.00;96287.72;4955232;28;20097;-63
2022/07/05 04:48:49;;;;;;;13.73;3.88;;;18.30;87.20;;;17.25;100.00;96284.03;4971807;28;20054;-63
2022/07/05 04:51:15;;;;;;;4.60;4.03;;;18.40;87.50;;;17.27;100.00;96287.28;4955771;28;20152;-63
2022/07/05 04:53:41;;;;;;;7.40;4.82;;;18.40;87.40;;;17.29;100.00;96287.84;4967155;28;20494;-63
2022/07/05 04:56:07;;;;;;;8.45;5.53;;;18.50;87.40;;;17.30;100.00;96292.94;4964206;28;20086;-64
2022/07/05 04:58:33;;;;;;;8.45;5.72;;;18.50;87.40;;;17.31;100.00;96289.25;4937583;28;20043;-62
2022/07/05 05:00:59;;;;;;;6.70;5.72;;;18.50;87.50;;;17.34;100.00;96291.44;4939436;28;20122;-63
2022/07/05 05:03:25;;;;;;;5.32;3.60;;;18.50;87.40;;;17.38;100.00;96295.28;4955522;28;20069;-63
2022/07/05 05:05:50;;;;;;;7.18;3.83;;;18.60;87.60;;;17.43;100.00;96294.63;4971536;28;20038;-63
2022/07/05 05:08:16;;;;;;;5.18;3.78;;;18.70;87.40;;;17.49;100.00;96291.03;4970340;28;20203;-63
2022/07/05 05:10:42;;;;;;;5.15;3.70;;;18.80;87.50;;;17.58;100.00;96297.66;4949749;28;20439;-63
2022/07/05 05:13:08;;;;;;;5.38;3.60;;;19.00;87.20;;;17.65;100.00;96287.75;4948608;28;20042;-63
2022/07/05 05:15:33;;;;;;;3.45;2.65;;;19.00;86.70;;;17.72;100.00;96293.78;4952438;28;20044;-64
2022/07/05 05:17:59;;;;;;;6.22;3.88;;;19.10;86.40;;;17.81;100.00;96293.44;4926131;28;20102;-63
2022/07/05 05:20:25;;;;;;;4.60;3.40;;;19.20;86.20;;;17.89;100.00;96290.47;4952066;28;20078;-63
2022/07/05 05:22:51;;;;;;;6.97;4.03;;;19.20;86.10;;;17.95;100.00;96281.53;4936000;28;20035;-63
2022/07/05 05:25:16;;;;;;;5.70;3.72;;;19.30;85.90;;;18.03;100.00;96283.84;4960769;28;20039;-63
2022/07/05 05:27:47;;;;;;;6.75;3.97;;;19.40;86.00;;;18.10;100.00;96284.53;4975877;28;20082;-63
2022/07/05 05:30:14;;;;;;;8.10;3.88;;;19.50;85.90;;;18.17;100.00;96279.13;4954694;28;20463;-63
2022/07/05 05:32:40;;;;;;;5.22;3.58;;;19.60;86.00;;;18.25;100.00;96282.22;4971154;28;20113;-62
2022/07/05 05:35:06;;;;;;;11.82;10.60;;;19.60;85.80;;;18.34;100.00;96280.03;4970961;28;20637;-63
2022/07/05 05:37:51;;;;;;;8.85;4.20;;;19.70;85.60;;;18.39;100.00;96282.81;4966687;28;20042;-63
2022/07/05 05:40:17;;;;;;;6.07;4.40;;;19.70;85.20;;;18.44;100.00;96280.25;4951636;28;20459;-63
2022/07/05 05:42:43;;;;;;;7.60;3.72;;;19.80;85.40;;;18.49;100.00;96283.03;4970880;28;20038;-63
2022/07/05 05:45:09;;;;;;;5.80;3.65;;;19.90;85.20;;;18.55;100.00;96284.75;4970853;28;20136;-63
2022/07/05 05:47:54;;;;;;;9.88;3.92;;;20.00;84.40;;;18.60;100.00;96286.72;4969545;28;20027;-63
2022/07/05 05:50:26;;;;;;;6.05;3.70;;;20.00;84.40;;;18.67;100.00;96290.09;4938397;28;20121;-63
2022/07/05 05:52:52;;;;;;;8.68;4.20;;;20.10;83.90;;;18.73;100.00;96283.00;4970813;28;20138;-63
2022/07/05 05:55:18;;;;;;;5.88;3.60;;;20.10;84.30;;;18.81;100.00;96291.47;4970650;28;20027;-63
2022/07/05 05:57:44;;;;;;;6.32;3.20;;;20.30;83.50;;;18.90;100.00;96287.38;4949268;28;20063;-63
2022/07/05 06:00:10;;;;;;;8.07;3.78;;;20.50;83.50;;;18.98;100.00;96289.66;4947204;28;20110;-63
2022/07/05 06:02:36;;;;;;;7.13;4.10;;;20.50;83.00;;;19.09;100.00;96295.19;4951195;28;20500;-64
2022/07/05 06:05:02;;;;;;;3.67;2.80;;;20.70;82.90;;;19.18;100.00;96293.75;4951044;28;20051;-63
2022/07/05 06:07:27;;;;;;;7.18;3.63;;;20.80;82.50;;;19.28;100.00;96297.44;4955107;28;20054;-64
2022/07/05 06:09:53;;;;;;;7.68;3.53;;;21.00;82.20;;;19.39;100.00;96295.75;4945031;28;20507;-63
2022/07/05 06:12:19;;;;;;;7.00;3.60;;;21.00;82.10;;;19.48;100.00;96294.31;4935124;28;20039;-63
2022/07/05 06:14:45;;;;;;;4.88;3.45;;;21.10;80.40;;;19.60;100.00;96301.47;4928719;28;20098;-63
2022/07/05 06:17:10;;;;;;;5.90;3.15;;;21.30;80.70;;;19.73;100.00;96309.19;4969997;28;20102;-63
2022/07/05 06:19:36;;;;;;;4.57;3.25;;;21.50;80.30;;;19.86;100.00;96308.84;4950738;28;20077;-63
2022/07/05 06:22:02;;;;;;;8.70;3.15;;;21.60;79.20;;;19.98;100.00;96304.25;4918629;28;20038;-63
2022/07/05 06:24:28;;;;;;;4.32;3.10;;;21.80;78.40;;;20.12;100.00;96313.53;4941213;28;20046;-64
2022/07/05 06:26:53;;;;;;;4.95;3.10;;;22.10;77.70;;;20.23;100.00;96313.72;4950781;28;20055;-63
2022/07/05 06:29:19;;;;;;;5.78;2.88;;;22.10;76.00;;;20.34;100.00;96315.47;4918876;29;20609;-63
2022/07/05 06:31:45;;;;;;;7.85;3.10;;;22.30;74.70;;;20.47;100.00;96309.81;4919200;29;20114;-63
2022/07/05 06:34:10;;;;;;;3.50;2.38;;;22.60;74.50;;;20.56;100.00;96316.34;4953179;28;20036;-63
2022/07/05 06:36:36;;;;;;;7.60;2.80;;;22.60;72.90;;;20.68;100.00;96322.41;4942016;28;20101;-63
2022/07/05 06:39:02;;;;;;;6.55;3.05;;;22.80;71.70;;;20.77;100.00;96315.56;4941237;28;20073;-63
2022/07/05 06:41:28;;;;;;;3.97;2.42;;;22.90;71.40;;;20.91;100.00;96328.59;4965783;28;20468;-63
2022/07/05 06:43:53;;;;;;;6.47;2.30;;;23.10;70.50;;;21.02;100.00;96325.78;4934424;28;20042;-64
2022/07/05 06:46:19;;;;;;;4.18;2.17;;;23.30;69.80;;;21.14;100.00;96325.66;4950820;28;20028;-63
2022/07/05 06:48:45;;;;;;;4.10;2.13;;;23.50;68.00;;;21.26;98.61;96331.69;4940546;28;20050;-63
2022/07/05 06:51:10;;;;;;;4.20;2.28;;;23.50;67.70;;;21.37;97.73;96333.44;4968519;28;20407;-63
2022/07/05 06:53:36;;;;;;;4.05;2.10;;;23.60;66.90;;;21.51;98.22;96333.88;4969830;28;20681;-63
2022/07/05 06:56:02;;;;;;;5.63;2.15;;;23.80;68.30;;;21.69;97.78;96343.38;4969195;28;20051;-63
2022/07/05 06:58:27;;;;;;;7.18;2.40;;;24.00;67.90;;;21.85;97.63;96341.66;4950258;28;20087;-63
2022/07/05 07:00:53;;;;;;;5.15;2.15;;;24.20;67.70;;;21.97;96.42;96345.81;4948141;28;20035;-63
2022/07/05 07:03:19;;;;;;;5.40;2.38;;;24.40;66.20;;;22.07;95.91;96337.06;4969415;28;20109;-63
2022/07/05 07:05:45;;;;;;;4.38;1.92;;;24.50;66.30;;;22.21;95.51;96337.47;4969769;28;20031;-63
2022/07/05 07:10:55;;;;;;;3.67;1.90;;;25.00;64.40;;;22.47;92.13;96341.94;4969726;28;20042;-64
2022/07/05 07:13:20;;;;;;;2.88;2.13;;;25.10;62.70;;;22.58;91.29;96330.19;4950799;28;20400;-63
2022/07/05 07:15:47;;;;;;;5.18;2.30;;;25.20;62.10;;;22.73;90.78;96336.72;4969368;28;20031;-63
2022/07/05 07:18:14;;;;;;;3.83;2.20;;;25.50;62.00;;;22.86;89.72;96342.47;4937325;28;20046;-63
2022/07/05 07:20:40;;;;;;;4.60;2.03;;;25.50;62.00;;;22.99;88.95;96346.53;4964133;28;20032;-63
2022/07/05 07:23:05;;;;;;;4.95;1.95;;;25.30;61.20;;;23.07;86.39;96347.91;4933491;28;20061;-63
2022/07/05 07:25:31;;;;;;;4.03;1.67;;;25.40;59.30;;;23.12;84.04;96345.25;4969376;28;20038;-63
2022/07/05 07:27:57;;;;;;;5.70;1.80;;;25.30;57.80;;;23.17;82.92;96353.34;4952665;28;20061;-64
2022/07/05 07:30:27;;;;;;;2.03;1.35;;;25.50;58.50;;;23.25;80.96;96352.81;4965766;28;20046;-64
2022/07/05 07:32:53;;;;;;;2.65;1.30;;;25.60;58.00;;;23.34;82.98;96350.44;4960542;28;20129;-63
2022/07/05 07:35:19;;;;;;;4.57;1.50;;;26.10;58.00;;;23.52;81.79;96355.31;4934262;28;20040;-63
2022/07/05 07:37:44;;;;;;;5.90;1.92;;;26.40;56.60;;;23.68;81.55;96357.00;4934023;28;20035;-63
2022/07/05 07:40:10;;;;;;;6.72;1.77;;;26.50;56.00;;;23.80;81.33;96356.78;4950317;28;20031;-63
2022/07/05 07:42:36;;;;;;;2.88;1.30;;;26.60;56.30;;;23.91;79.14;96360.25;4970666;28;20016;-63
2022/07/05 07:45:03;;;;;;;2.50;1.50;;;26.50;54.30;;;23.95;78.10;96361.34;4969183;28;20087;-63
2022/07/05 07:47:33;;;;;;;2.60;1.80;;;26.60;54.10;;;24.00;78.42;96362.16;4953411;28;20027;-63
2022/07/05 07:49:59;;;;;;;3.97;1.60;;;26.70;55.30;;;24.08;77.86;96347.38;4952171;28;20379;-63
2022/07/05 07:52:25;;;;;;;3.45;1.70;;;26.80;54.30;;;24.12;77.03;96356.53;4969496;28;20547;-63
2022/07/05 07:54:50;;;;;;;3.70;1.67;;;26.70;54.00;;;24.17;76.64;96353.03;4949682;28;20057;-63
2022/07/05 07:57:16;;;;;;;2.42;1.45;;;26.60;53.90;;;24.17;75.86;96355.72;4968962;28;20039;-63
2022/07/05 07:59:42;;;;;;;3.80;1.40;;;26.40;54.30;;;24.20;75.14;96361.34;4969000;28;20109;-63
2022/07/05 08:02:08;;;;;;;3.60;1.50;;;26.50;54.40;;;24.27;74.06;96361.91;4969448;28;20042;-64
2022/07/05 08:04:34;;;;;;;2.65;1.40;;;26.70;52.30;;;24.36;72.48;96368.38;4970051;28;20042;-63
2022/07/05 08:07:00;;;;;;;4.20;1.42;;;26.70;51.10;;;24.37;72.48;96359.22;4963867;28;20047;-63
2022/07/05 08:09:26;;;;;;;2.83;1.33;;;26.60;53.10;;;24.40;72.94;96365.94;4953077;28;20035;-63
2022/07/05 08:11:51;;;;;;;6.15;1.60;;;26.70;54.20;;;24.49;73.32;96358.16;4936854;28;20696;-63
2022/07/05 08:14:18;;;;;;;3.80;1.40;;;26.90;53.70;;;24.60;71.91;96365.13;4953214;28;20504;-63
2022/07/05 08:16:45;;;;;;;3.95;1.20;;;27.00;52.20;;;24.68;69.25;96367.28;4949694;28;20682;-63
2022/07/05 08:21:55;;;;;;;4.40;1.52;;;27.60;45.80;;;24.97;65.88;96365.59;4972149;28;20045;-63
2022/07/05 08:24:21;;;;;;;1.73;1.10;;;28.30;45.00;;;25.26;65.74;96362.28;4971366;28;20027;-63
2022/07/05 08:26:47;;;;;;;4.30;1.40;;;28.80;45.60;;;25.54;64.43;96358.91;4955463;28;20045;-63
2022/07/05 08:29:13;;;;;;;2.97;1.20;;;28.70;43.60;;;25.71;63.47;96365.84;4952720;28;20059;-63
2022/07/05 08:31:44;;;;;;;3.92;1.30;;;28.60;44.70;;;25.84;60.95;96357.16;4936931;29;20044;-63
2022/07/05 08:34:10;;;;;;;3.55;1.30;;;28.50;45.50;;;25.92;62.50;96365.47;4936286;28;20090;-63
2022/07/05 08:36:36;;;;;;;2.58;1.17;;;28.40;45.70;;;25.99;61.45;96365.13;4945708;28;20027;-63
2022/07/05 08:39:02;;;;;;;2.63;1.35;;;28.50;43.70;;;26.07;61.35;96356.47;4967443;28;20058;-62
2022/07/05 08:41:28;;;;;;;3.30;1.20;;;28.50;45.90;;;26.12;61.28;96361.81;4972230;28;20131;-63
2022/07/05 08:43:54;;;;;;;4.45;1.30;;;28.70;44.90;;;26.17;60.45;96359.06;4971466;28;20034;-62
2022/07/05 08:46:20;;;;;;;5.13;1.08;;;29.00;43.30;;;26.34;60.34;96355.16;4953193;28;20549;-63
2022/07/05 08:48:49;;;;;;;2.67;1.30;;;29.60;43.40;;;26.54;56.61;96349.63;4953033;28;20050;-62
2022/07/05 08:51:17;;;;;;;2.88;1.27;;;29.80;40.30;;;26.70;58.12;96353.75;4955532;28;20755;-63
2022/07/05 08:53:44;;;;;;;3.95;1.33;;;30.00;40.10;;;26.92;57.87;96355.16;4956241;28;20035;-63
2022/07/05 08:56:11;;;;;;;2.55;1.20;;;30.30;41.00;;;27.18;57.72;96351.13;4962314;28;20035;-62
2022/07/05 08:58:37;;;;;;;2.22;1.05;;;30.60;39.00;;;27.34;55.80;96352.53;4952237;28;20056;-63
2022/07/05 09:01:03;;;;;;;5.32;1.10;;;30.60;38.20;;;27.58;53.97;96351.69;4952333;28;20035;-63
2022/07/05 09:03:34;;;;;;;3.13;1.15;;;30.90;37.20;;;27.88;51.10;96350.50;4952459;28;20035;-63
2022/07/05 09:06:01;;;;;;;4.55;1.10;;;31.10;37.70;;;28.11;52.16;96348.81;4952949;28;20051;-63
2022/07/05 09:08:27;;;;;;;1.35;0.80;;;31.30;36.30;;;28.28;50.46;96355.28;4971475;28;20031;-63
2022/07/05 09:10:53;;;;;;;2.78;1.10;;;31.30;34.80;;;28.52;49.56;96349.78;4971571;28;20466;-63
2022/07/05 09:13:19;;;;;;;2.55;1.00;;;31.60;35.20;;;28.75;48.81;96349.91;4954728;28;20031;-63
2022/07/05 09:15:44;;;;;;;2.95;1.00;;;31.70;34.90;;;28.96;47.89;96351.16;4954365;28;20094;-62
2022/07/05 09:18:10;;;;;;;1.83;0.90;;;32.00;34.00;;;29.17;46.81;96354.25;4967342;28;20035;-64
2022/07/05 09:20:36;;;;;;;3.28;0.70;;;32.20;32.40;;;29.34;44.47;96348.25;4936519;28;20031;-63
2022/07/05 09:23:02;;;;;;;2.88;0.73;;;32.10;31.20;;;29.57;44.12;96349.94;4936304;28;20432;-64
2022/07/05 09:25:30;;;;;;;5.15;0.93;;;32.50;31.50;;;29.72;40.67;96348.81;4944153;28;20665;-63
2022/07/05 09:28:03;;;;;;;3.28;0.82;;;32.20;28.40;;;29.90;39.42;96344.34;4949782;28;20042;-63
2022/07/05 09:30:37;;;;;;;2.08;0.60;;;32.70;29.80;;;30.14;38.96;96347.59;4971353;28;20394;-63
2022/07/05 09:33:12;;;;;;;1.60;0.60;;;33.10;29.90;;;30.41;36.56;96344.75;4955677;28;20029;-64
2022/07/05 09:35:58;;;;;;;2.15;0.80;;;33.20;28.00;;;30.63;35.39;96340.44;4968975;28;20518;-63
2022/07/05 09:38:24;;;;;;;1.58;0.75;;;33.60;26.60;;;30.80;38.94;96345.16;4942647;28;20029;-63
2022/07/05 09:40:55;;;;;;;1.38;0.70;;;33.80;27.90;;;31.00;35.87;96339.16;4970887;28;20031;-63
2022/07/05 09:43:26;;;;;;;0.73;0.50;;;34.10;28.00;;;31.18;36.18;96350.91;4955041;28;20046;-63
2022/07/05 09:45:54;;;;;;;1.25;0.60;;;34.30;27.70;;;31.39;36.50;96336.44;4968331;28;20121;-63
2022/07/05 09:48:20;;;;;;;1.23;0.60;;;34.60;27.50;;;31.53;35.84;96336.31;4971690;28;20035;-63
2022/07/05 09:50:46;;;;;;;2.53;0.70;;;34.60;25.60;;;31.71;36.66;96336.34;4954892;28;20041;-63
2022/07/05 09:53:11;;;;;;;1.88;0.77;;;34.90;27.20;;;31.86;36.15;96330.44;4970923;28;20056;-63
2022/07/05 09:55:38;;;;;;;2.25;0.63;;;35.00;27.40;;;31.98;36.60;96336.88;4962229;28;20054;-63
2022/07/05 09:58:04;;;;;;;1.88;0.70;;;35.30;27.00;;;32.14;36.67;96334.47;4966681;28;20122;-63
2022/07/05 10:00:29;;;;;;;1.27;0.70;;;35.60;27.10;;;32.40;35.93;96336.38;4935553;28;20033;-64
2022/07/05 10:03:00;;;;;;;1.60;0.73;;;36.10;26.60;;;32.53;35.47;96335.38;4951365;28;20028;-63
2022/07/05 10:05:28;;;;;;;1.50;0.65;;;36.00;24.40;;;32.66;35.11;96331.66;4931924;28;20403;-63
2022/07/05 10:07:55;;;;;;;1.05;0.68;;;36.00;25.20;;;32.85;34.19;96326.66;4953947;28;20027;-63
2022/07/05 10:10:23;;;;;;;1.20;0.68;;;36.60;24.90;;;33.03;34.80;96332.81;4970424;28;20037;-63
2022/07/05 10:12:51;;;;;;;2.25;0.65;;;36.50;24.40;;;33.33;32.70;96328.22;4970754;28;20193;-63
2022/07/05 10:15:19;;;;;;;1.95;0.73;;;37.20;23.60;;;33.67;32.42;96329.94;4946147;28;20039;-63
2022/07/05 10:17:52;;;;;;;1.30;0.70;;;37.50;23.30;;;33.91;32.52;96333.94;4969951;28;20122;-63